createdAt,value
2022-11-22T00:00:23.003Z,983.75
2022-11-22T00:01:22.986Z,983.72
2022-11-22T00:02:22.978Z,983.71
2022-11-22T00:03:22.962Z,983.66
2022-11-22T00:04:22.955Z,983.66
2022-11-22T00:05:22.949Z,983.67
2022-11-22T00:06:22.946Z,983.73
2022-11-22T00:07:22.927Z,983.73
2022-11-22T00:08:22.924Z,983.72
2022-11-22T00:09:22.911Z,983.68
2022-11-22T00:10:22.923Z,983.7
2022-11-22T00:11:22.893Z,983.7
2022-11-22T00:12:22.897Z,983.69
2022-11-22T00:13:22.896Z,983.71
2022-11-22T00:14:22.852Z,983.67
2022-11-22T00:15:22.858Z,983.66
2022-11-22T00:16:22.833Z,983.65
2022-11-22T00:17:22.822Z,983.67
2022-11-22T00:18:22.808Z,983.52
2022-11-22T00:19:22.801Z,983.6
2022-11-22T00:20:22.793Z,983.55
2022-11-22T00:21:22.793Z,983.5
2022-11-22T00:22:22.771Z,983.48
2022-11-22T00:23:22.759Z,983.47
2022-11-22T00:24:22.775Z,983.5
2022-11-22T00:25:22.739Z,983.43
2022-11-22T00:26:22.731Z,983.43
2022-11-22T00:27:22.717Z,983.39
2022-11-22T00:28:22.710Z,983.34
2022-11-22T00:29:22.698Z,983.33
2022-11-22T00:30:22.690Z,983.29
2022-11-22T00:31:22.706Z,983.33
2022-11-22T00:32:22.681Z,983.33
2022-11-22T00:33:22.659Z,983.36
2022-11-22T00:34:22.651Z,983.25
2022-11-22T00:35:22.639Z,983.26
2022-11-22T00:36:22.624Z,983.29
2022-11-22T00:37:22.618Z,983.3
2022-11-22T00:38:22.622Z,983.29
2022-11-22T00:39:22.598Z,983.26
2022-11-22T00:40:22.596Z,983.3
2022-11-22T00:41:22.600Z,983.24
2022-11-22T00:42:22.584Z,983.26
2022-11-22T00:43:22.589Z,983.25
2022-11-22T00:44:22.559Z,983.22
2022-11-22T00:45:22.577Z,983.28
2022-11-22T00:46:22.525Z,983.19
2022-11-22T00:47:22.516Z,983.19
2022-11-22T00:48:22.502Z,983.18
2022-11-22T00:49:22.496Z,983.13
2022-11-22T00:50:22.481Z,983.1
2022-11-22T00:51:22.469Z,983.17
2022-11-22T00:52:22.464Z,983.15
2022-11-22T00:53:22.455Z,983.15
2022-11-22T00:54:22.456Z,983.1
2022-11-22T00:55:22.511Z,983.07
2022-11-22T00:56:22.434Z,983.04
2022-11-22T00:57:22.415Z,983.03
2022-11-22T00:58:22.400Z,983.06
2022-11-22T00:59:22.393Z,983.03
2022-11-22T01:00:22.379Z,982.98
2022-11-22T01:01:22.380Z,982.97
2022-11-22T01:02:22.364Z,983.01
2022-11-22T01:03:22.350Z,982.96
2022-11-22T01:04:22.340Z,982.99
2022-11-22T01:05:22.330Z,982.95
2022-11-22T01:06:22.323Z,982.97
2022-11-22T01:07:22.309Z,982.84
2022-11-22T01:08:22.297Z,982.89
2022-11-22T01:09:22.304Z,982.9
2022-11-22T01:10:22.283Z,982.87
2022-11-22T01:11:22.272Z,982.86
2022-11-22T01:12:22.256Z,982.91
2022-11-22T01:13:22.251Z,982.96
2022-11-22T01:14:22.235Z,983.03
2022-11-22T01:15:22.226Z,982.93
2022-11-22T01:16:22.217Z,982.87
2022-11-22T01:17:22.205Z,982.88
2022-11-22T01:18:22.200Z,982.81
2022-11-22T01:19:22.194Z,982.83
2022-11-22T01:20:22.181Z,982.76
2022-11-22T01:21:22.169Z,982.76
2022-11-22T01:22:22.155Z,982.74
2022-11-22T01:23:22.144Z,982.75
2022-11-22T01:24:22.142Z,982.79
2022-11-22T01:25:22.126Z,982.71
2022-11-22T01:26:22.116Z,982.75
2022-11-22T01:27:22.105Z,982.72
2022-11-22T01:28:22.094Z,982.63
2022-11-22T01:29:22.090Z,982.65
2022-11-22T01:30:22.075Z,982.66
2022-11-22T01:31:22.068Z,982.64
2022-11-22T01:32:22.058Z,982.6
2022-11-22T01:33:22.045Z,982.59
2022-11-22T01:34:22.037Z,982.62
2022-11-22T01:35:22.029Z,982.61
2022-11-22T01:36:22.013Z,982.6
2022-11-22T01:37:22.091Z,982.6
2022-11-22T01:38:21.998Z,982.54
2022-11-22T01:39:21.983Z,982.54
2022-11-22T01:40:21.972Z,982.55
2022-11-22T01:41:21.965Z,982.47
2022-11-22T01:42:22.012Z,982.51
2022-11-22T01:43:21.944Z,982.52
2022-11-22T01:44:21.932Z,982.48
2022-11-22T01:45:21.922Z,982.41
2022-11-22T01:46:21.915Z,982.42
2022-11-22T01:47:21.901Z,982.5
2022-11-22T01:48:21.894Z,982.43
2022-11-22T01:49:21.883Z,982.38
2022-11-22T01:50:21.877Z,982.38
2022-11-22T01:51:21.858Z,982.45
2022-11-22T01:52:21.852Z,982.38
2022-11-22T01:53:21.867Z,982.32
2022-11-22T01:54:21.833Z,982.33
2022-11-22T01:55:21.846Z,982.28
2022-11-22T01:56:21.815Z,982.3
2022-11-22T01:57:21.804Z,982.3
2022-11-22T01:58:21.791Z,982.38
2022-11-22T01:59:21.788Z,982.41
2022-11-22T02:00:21.774Z,982.37
2022-11-22T02:01:21.758Z,982.35
2022-11-22T02:02:21.751Z,982.35
2022-11-22T02:03:21.739Z,982.31
2022-11-22T02:04:21.728Z,982.37
2022-11-22T02:05:21.715Z,982.38
2022-11-22T02:06:21.710Z,982.41
2022-11-22T02:07:21.700Z,982.39
2022-11-22T02:08:21.708Z,982.4
2022-11-22T02:09:21.688Z,982.37
2022-11-22T02:10:21.674Z,982.33
2022-11-22T02:11:21.659Z,982.39
2022-11-22T02:12:21.647Z,982.38
2022-11-22T02:13:21.638Z,982.36
2022-11-22T02:14:21.626Z,982.4
2022-11-22T02:15:21.651Z,982.48
2022-11-22T02:16:21.609Z,982.42
2022-11-22T02:17:21.597Z,982.44
2022-11-22T02:18:21.586Z,982.46
2022-11-22T02:19:21.592Z,982.38
2022-11-22T02:20:21.563Z,982.41
2022-11-22T02:21:21.554Z,982.43
2022-11-22T02:22:21.545Z,982.49
2022-11-22T02:23:21.533Z,982.38
2022-11-22T02:24:21.522Z,982.38
2022-11-22T02:25:21.528Z,982.36
2022-11-22T02:26:21.507Z,982.31
2022-11-22T02:27:21.495Z,982.26
2022-11-22T02:28:21.489Z,982.3
2022-11-22T02:29:21.471Z,982.3
2022-11-22T02:30:21.471Z,982.36
2022-11-22T02:31:21.452Z,982.32
2022-11-22T02:32:21.468Z,982.3
2022-11-22T02:33:21.433Z,982.34
2022-11-22T02:34:21.423Z,982.34
2022-11-22T02:35:21.414Z,982.31
2022-11-22T02:36:21.404Z,982.28
2022-11-22T02:37:21.398Z,982.29
2022-11-22T02:38:21.381Z,982.27
2022-11-22T02:39:21.374Z,982.31
2022-11-22T02:40:21.364Z,982.31
2022-11-22T02:41:21.352Z,982.38
2022-11-22T02:42:21.342Z,982.32
2022-11-22T02:43:21.340Z,982.28
2022-11-22T02:44:21.343Z,982.33
2022-11-22T02:45:21.313Z,982.38
2022-11-22T02:46:21.301Z,982.28
2022-11-22T02:47:21.290Z,982.26
2022-11-22T02:48:21.283Z,982.37
2022-11-22T02:49:21.275Z,982.29
2022-11-22T02:50:21.327Z,982.33
2022-11-22T02:51:21.251Z,982.3
2022-11-22T02:52:21.243Z,982.35
2022-11-22T02:53:21.233Z,982.34
2022-11-22T02:54:21.229Z,982.34
2022-11-22T02:55:21.218Z,982.34
2022-11-22T02:56:21.213Z,982.36
2022-11-22T02:57:21.203Z,982.37
2022-11-22T02:58:21.180Z,982.37
2022-11-22T02:59:21.172Z,982.34
2022-11-22T03:00:21.160Z,982.33
2022-11-22T03:01:21.150Z,982.36
2022-11-22T03:02:21.147Z,982.37
2022-11-22T03:03:21.129Z,982.32
2022-11-22T03:04:21.159Z,982.36
2022-11-22T03:05:21.107Z,982.36
2022-11-22T03:06:21.096Z,982.37
2022-11-22T03:07:21.094Z,982.41
2022-11-22T03:08:21.088Z,982.39
2022-11-22T03:09:21.066Z,982.36
2022-11-22T03:10:21.068Z,982.36
2022-11-22T03:11:21.050Z,982.39
2022-11-22T03:12:21.036Z,982.36
2022-11-22T03:13:21.031Z,982.31
2022-11-22T03:14:21.043Z,982.26
2022-11-22T03:15:21.003Z,982.25
2022-11-22T03:16:21.016Z,982.28
2022-11-22T03:17:20.990Z,982.22
2022-11-22T03:18:20.975Z,982.26
2022-11-22T03:19:20.970Z,982.23
2022-11-22T03:20:20.958Z,982.23
2022-11-22T03:21:20.944Z,982.12
2022-11-22T03:22:20.939Z,982.24
2022-11-22T03:23:20.921Z,982.24
2022-11-22T03:24:20.911Z,982.27
2022-11-22T03:25:20.911Z,982.26
2022-11-22T03:26:20.919Z,982.26
2022-11-22T03:27:20.886Z,982.25
2022-11-22T03:28:20.874Z,982.24
2022-11-22T03:29:20.862Z,982.32
2022-11-22T03:30:20.856Z,982.32
2022-11-22T03:31:20.868Z,982.3
2022-11-22T03:32:20.835Z,982.39
2022-11-22T03:33:20.857Z,982.33
2022-11-22T03:34:20.819Z,982.33
2022-11-22T03:35:20.803Z,982.34
2022-11-22T03:36:20.795Z,982.32
2022-11-22T03:37:20.787Z,982.35
2022-11-22T03:38:20.774Z,982.38
2022-11-22T03:39:20.760Z,982.33
2022-11-22T03:40:20.750Z,982.38
2022-11-22T03:41:20.742Z,982.4
2022-11-22T03:42:20.732Z,982.44
2022-11-22T03:43:20.759Z,982.42
2022-11-22T03:44:20.717Z,982.41
2022-11-22T03:45:20.700Z,982.46
2022-11-22T03:46:20.694Z,982.46
2022-11-22T03:47:20.683Z,982.5
2022-11-22T03:48:20.671Z,982.53
2022-11-22T03:49:20.664Z,982.46
2022-11-22T03:50:20.665Z,982.51
2022-11-22T03:51:20.639Z,982.48
2022-11-22T03:52:20.635Z,982.5
2022-11-22T03:53:20.620Z,982.53
2022-11-22T03:54:20.617Z,982.52
2022-11-22T03:55:20.616Z,982.46
2022-11-22T03:56:20.658Z,982.51
2022-11-22T03:57:20.579Z,982.44
2022-11-22T03:58:20.569Z,982.44
2022-11-22T03:59:20.563Z,982.48
2022-11-22T04:00:20.547Z,982.49
2022-11-22T04:01:20.535Z,982.49
2022-11-22T04:02:20.525Z,982.48
2022-11-22T04:03:20.533Z,982.45
2022-11-22T04:04:20.500Z,982.48
2022-11-22T04:05:20.494Z,982.47
2022-11-22T04:06:20.485Z,982.48
2022-11-22T04:07:20.482Z,982.48
2022-11-22T04:08:20.461Z,982.52
2022-11-22T04:09:20.454Z,982.54
2022-11-22T04:10:20.445Z,982.52
2022-11-22T04:11:20.432Z,982.56
2022-11-22T04:12:20.424Z,982.49
2022-11-22T04:13:20.415Z,982.52
2022-11-22T04:14:20.402Z,982.55
2022-11-22T04:15:20.388Z,982.51
2022-11-22T04:16:20.384Z,982.53
2022-11-22T04:17:20.369Z,982.54
2022-11-22T04:18:20.358Z,982.56
2022-11-22T04:19:20.350Z,982.53
2022-11-22T04:20:20.341Z,982.55
2022-11-22T04:21:20.330Z,982.51
2022-11-22T04:22:20.319Z,982.58
2022-11-22T04:23:20.308Z,982.61
2022-11-22T04:24:20.301Z,982.54
2022-11-22T04:25:20.319Z,982.62
2022-11-22T04:26:20.308Z,982.56
2022-11-22T04:27:20.286Z,982.6
2022-11-22T04:28:20.256Z,982.63
2022-11-22T04:29:20.257Z,982.64
2022-11-22T04:30:20.258Z,982.59
2022-11-22T04:31:20.256Z,982.64
2022-11-22T04:32:20.230Z,982.66
2022-11-22T04:33:20.224Z,982.69
2022-11-22T04:34:20.192Z,982.72
2022-11-22T04:35:20.184Z,982.74
2022-11-22T04:36:20.171Z,982.69
2022-11-22T04:37:20.160Z,982.67
2022-11-22T04:38:20.154Z,982.78
2022-11-22T04:39:20.143Z,982.72
2022-11-22T04:40:20.206Z,982.79
2022-11-22T04:41:20.121Z,982.77
2022-11-22T04:42:20.122Z,982.82
2022-11-22T04:43:20.096Z,982.81
2022-11-22T04:44:20.104Z,982.81
2022-11-22T04:45:20.074Z,982.89
2022-11-22T04:46:20.065Z,982.9
2022-11-22T04:47:20.061Z,982.93
2022-11-22T04:48:20.047Z,982.95
2022-11-22T04:49:20.031Z,982.89
2022-11-22T04:50:20.028Z,982.93
2022-11-22T04:51:20.011Z,982.94
2022-11-22T04:52:20.015Z,982.94
2022-11-22T04:53:19.995Z,982.93
2022-11-22T04:54:19.987Z,982.93
2022-11-22T04:55:19.983Z,983
2022-11-22T04:56:19.956Z,983
2022-11-22T04:57:19.953Z,982.99
2022-11-22T04:58:19.960Z,982.94
2022-11-22T04:59:19.925Z,982.99
2022-11-22T05:00:19.923Z,982.93
2022-11-22T05:01:19.909Z,983.02
2022-11-22T05:02:19.896Z,982.97
2022-11-22T05:03:19.884Z,982.92
2022-11-22T05:04:19.871Z,982.93
2022-11-22T05:05:19.869Z,982.97
2022-11-22T05:06:19.854Z,982.94
2022-11-22T05:07:19.844Z,982.97
2022-11-22T05:08:19.831Z,982.89
2022-11-22T05:09:19.820Z,982.87
2022-11-22T05:10:19.808Z,982.94
2022-11-22T05:11:19.799Z,982.99
2022-11-22T05:12:19.786Z,982.97
2022-11-22T05:13:19.779Z,982.96
2022-11-22T05:14:19.765Z,982.99
2022-11-22T05:15:19.808Z,982.96
2022-11-22T05:16:19.747Z,983.05
2022-11-22T05:17:19.760Z,983.04
2022-11-22T05:18:19.740Z,983.06
2022-11-22T05:19:19.710Z,983.07
2022-11-22T05:20:19.709Z,983.16
2022-11-22T05:21:19.696Z,983.1
2022-11-22T05:22:19.686Z,983.12
2022-11-22T05:23:19.673Z,983.18
2022-11-22T05:24:19.659Z,983.12
2022-11-22T05:25:19.654Z,983.05
2022-11-22T05:26:19.639Z,983.11
2022-11-22T05:27:19.627Z,983.1
2022-11-22T05:28:19.620Z,983.15
2022-11-22T05:29:19.629Z,983.09
2022-11-22T05:30:19.597Z,983.06
2022-11-22T05:31:19.585Z,983.04
2022-11-22T05:32:19.579Z,982.99
2022-11-22T05:33:19.566Z,982.94
2022-11-22T05:34:19.571Z,982.95
2022-11-22T05:35:19.559Z,982.87
2022-11-22T05:36:19.543Z,982.88
2022-11-22T05:37:19.526Z,982.92
2022-11-22T05:38:19.515Z,982.97
2022-11-22T05:39:19.509Z,982.95
2022-11-22T05:40:19.498Z,982.92
2022-11-22T05:41:19.491Z,982.97
2022-11-22T05:42:19.477Z,982.95
2022-11-22T05:43:19.467Z,982.94
2022-11-22T05:44:19.449Z,982.97
2022-11-22T05:45:19.442Z,982.99
2022-11-22T05:46:19.444Z,982.95
2022-11-22T05:47:19.425Z,982.99
2022-11-22T05:48:19.410Z,983
2022-11-22T05:49:19.400Z,982.97
2022-11-22T05:50:19.403Z,982.98
2022-11-22T05:51:19.427Z,983.02
2022-11-22T05:52:19.383Z,983.04
2022-11-22T05:53:19.396Z,982.98
2022-11-22T05:54:19.344Z,983.02
2022-11-22T05:55:19.358Z,983.01
2022-11-22T05:56:19.327Z,983.06
2022-11-22T05:57:19.348Z,983.04
2022-11-22T05:58:19.304Z,983.09
2022-11-22T05:59:19.309Z,983.11
2022-11-22T06:00:19.288Z,983.12
2022-11-22T06:01:19.287Z,983.14
2022-11-22T06:02:19.264Z,983.11
2022-11-22T06:03:19.258Z,983.11
2022-11-22T06:04:19.252Z,983.1
2022-11-22T06:05:19.232Z,983.03
2022-11-22T06:06:19.226Z,983.09
2022-11-22T06:07:19.221Z,983.07
2022-11-22T06:08:19.210Z,983.1
2022-11-22T06:09:19.192Z,983.14
2022-11-22T06:10:19.179Z,983.15
2022-11-22T06:11:19.172Z,983.14
2022-11-22T06:12:19.163Z,983.18
2022-11-22T06:13:19.224Z,983.21
2022-11-22T06:14:19.146Z,983.15
2022-11-22T06:15:19.130Z,983.09
2022-11-22T06:16:19.135Z,983.14
2022-11-22T06:17:19.117Z,983.17
2022-11-22T06:18:19.102Z,983.14
2022-11-22T06:19:19.089Z,983.12
2022-11-22T06:20:19.089Z,983.14
2022-11-22T06:21:19.082Z,983.16
2022-11-22T06:22:19.063Z,983.14
2022-11-22T06:23:19.050Z,983.17
2022-11-22T06:24:19.044Z,983.13
2022-11-22T06:25:19.057Z,983.21
2022-11-22T06:26:19.059Z,983.18
2022-11-22T06:27:19.013Z,983.18
2022-11-22T06:28:19.002Z,983.16
2022-11-22T06:29:18.989Z,983.17
2022-11-22T06:30:18.975Z,983.12
2022-11-22T06:31:18.972Z,983.1
2022-11-22T06:32:18.968Z,983.16
2022-11-22T06:33:18.950Z,983.28
2022-11-22T06:34:18.965Z,983.27
2022-11-22T06:35:18.923Z,983.3
2022-11-22T06:36:18.916Z,983.34
2022-11-22T06:37:18.928Z,983.37
2022-11-22T06:38:18.898Z,983.39
2022-11-22T06:39:18.883Z,983.45
2022-11-22T06:40:18.876Z,983.4
2022-11-22T06:41:18.861Z,983.46
2022-11-22T06:42:18.850Z,983.42
2022-11-22T06:43:18.844Z,983.45
2022-11-22T06:44:18.831Z,983.4
2022-11-22T06:45:18.854Z,983.44
2022-11-22T06:46:18.840Z,983.48
2022-11-22T06:47:18.801Z,983.52
2022-11-22T06:48:18.799Z,983.54
2022-11-22T06:49:18.785Z,983.57
2022-11-22T06:50:18.768Z,983.53
2022-11-22T06:51:18.768Z,983.54
2022-11-22T06:52:18.774Z,983.59
2022-11-22T06:53:18.735Z,983.55
2022-11-22T06:54:18.727Z,983.55
2022-11-22T06:55:18.718Z,983.6
2022-11-22T06:56:18.702Z,983.59
2022-11-22T06:57:18.691Z,983.62
2022-11-22T06:58:18.685Z,983.62
2022-11-22T06:59:18.661Z,983.6
2022-11-22T07:00:18.651Z,983.64
2022-11-22T07:01:18.639Z,983.66
2022-11-22T07:02:18.627Z,983.63
2022-11-22T07:03:18.627Z,983.71
2022-11-22T07:04:18.604Z,983.78
2022-11-22T07:05:18.597Z,983.72
2022-11-22T07:06:18.586Z,983.7
2022-11-22T07:07:18.577Z,983.78
2022-11-22T07:08:18.582Z,983.82
2022-11-22T07:09:18.551Z,983.79
2022-11-22T07:10:18.540Z,983.83
2022-11-22T07:11:18.530Z,983.81
2022-11-22T07:12:18.521Z,983.87
2022-11-22T07:13:18.512Z,983.87
2022-11-22T07:14:18.500Z,983.88
2022-11-22T07:15:18.494Z,983.94
2022-11-22T07:16:18.485Z,983.95
2022-11-22T07:17:18.471Z,984.02
2022-11-22T07:18:18.453Z,984.02
2022-11-22T07:19:18.447Z,984.07
2022-11-22T07:20:18.471Z,983.97
2022-11-22T07:21:18.424Z,984.04
2022-11-22T07:22:18.420Z,983.96
2022-11-22T07:23:18.407Z,983.99
2022-11-22T07:24:18.390Z,983.99
2022-11-22T07:25:18.378Z,983.99
2022-11-22T07:26:18.373Z,984.06
2022-11-22T07:27:18.416Z,983.97
2022-11-22T07:28:18.349Z,983.97
2022-11-22T07:29:18.340Z,984
2022-11-22T07:30:18.328Z,983.96
2022-11-22T07:31:18.387Z,983.93
2022-11-22T07:32:18.305Z,984
2022-11-22T07:33:18.311Z,983.99
2022-11-22T07:34:18.289Z,983.97
2022-11-22T07:35:18.276Z,984.01
2022-11-22T07:36:18.271Z,984
2022-11-22T07:37:18.267Z,984.01
2022-11-22T07:38:18.248Z,984.03
2022-11-22T07:39:18.290Z,984.02
2022-11-22T07:40:18.225Z,984.07
2022-11-22T07:41:18.213Z,984.08
2022-11-22T07:42:18.219Z,984.1
2022-11-22T07:43:19.208Z,984.17
2022-11-22T07:44:18.180Z,984.12
2022-11-22T07:45:18.175Z,984.2
2022-11-22T07:46:18.163Z,984.19
2022-11-22T07:47:18.191Z,984.19
2022-11-22T07:48:18.148Z,984.24
2022-11-22T07:49:18.128Z,984.29
2022-11-22T07:50:18.114Z,984.2
2022-11-22T07:51:18.104Z,984.19
2022-11-22T07:52:18.096Z,984.21
2022-11-22T07:53:18.084Z,984.23
2022-11-22T07:54:18.079Z,984.26
2022-11-22T07:55:18.063Z,984.27
2022-11-22T07:56:18.050Z,984.25
2022-11-22T07:57:18.039Z,984.26
2022-11-22T07:58:18.123Z,984.33
2022-11-22T07:59:18.042Z,984.34
2022-11-22T08:00:18.007Z,984.35
2022-11-22T08:01:18.025Z,984.31
2022-11-22T08:02:17.987Z,984.27
2022-11-22T08:03:17.981Z,984.32
2022-11-22T08:04:17.965Z,984.28
2022-11-22T08:05:17.959Z,984.29
2022-11-22T08:06:17.956Z,984.27
2022-11-22T08:07:17.932Z,984.33
2022-11-22T08:08:17.922Z,984.39
2022-11-22T08:09:17.914Z,984.38
2022-11-22T08:10:17.912Z,984.39
2022-11-22T08:11:17.911Z,984.36
2022-11-22T08:12:17.884Z,984.34
2022-11-22T08:13:17.880Z,984.37
2022-11-22T08:14:17.872Z,984.42
2022-11-22T08:15:17.848Z,984.38
2022-11-22T08:16:17.869Z,984.37
2022-11-22T08:17:17.834Z,984.39
2022-11-22T08:18:17.822Z,984.43
2022-11-22T08:19:17.817Z,984.44
2022-11-22T08:20:17.817Z,984.42
2022-11-22T08:21:17.788Z,984.41
2022-11-22T08:22:17.907Z,984.43
2022-11-22T08:23:17.767Z,984.41
2022-11-22T08:24:17.758Z,984.45
2022-11-22T08:25:17.746Z,984.49
2022-11-22T08:26:17.737Z,984.54
2022-11-22T08:27:17.726Z,984.52
2022-11-22T08:28:17.718Z,984.54
2022-11-22T08:29:17.720Z,984.55
2022-11-22T08:30:17.704Z,984.55
2022-11-22T08:31:17.683Z,984.5
2022-11-22T08:32:17.670Z,984.54
2022-11-22T08:33:17.664Z,984.53
2022-11-22T08:34:17.654Z,984.6
2022-11-22T08:35:17.641Z,984.57
2022-11-22T08:36:17.683Z,984.57
2022-11-22T08:37:17.617Z,984.55
2022-11-22T08:38:17.613Z,984.61
2022-11-22T08:39:17.616Z,984.55
2022-11-22T08:40:17.597Z,984.52
2022-11-22T08:41:17.601Z,984.55
2022-11-22T08:42:17.571Z,984.56
2022-11-22T08:43:17.555Z,984.5
2022-11-22T08:44:17.550Z,984.52
2022-11-22T08:45:17.533Z,984.47
2022-11-22T08:46:17.527Z,984.51
2022-11-22T08:47:17.516Z,984.54
2022-11-22T08:48:17.503Z,984.53
2022-11-22T08:49:17.493Z,984.55
2022-11-22T08:50:17.483Z,984.62
2022-11-22T08:51:17.482Z,984.66
2022-11-22T08:52:17.489Z,984.64
2022-11-22T08:53:17.453Z,984.63
2022-11-22T08:54:17.441Z,984.54
2022-11-22T08:55:17.440Z,984.55
2022-11-22T08:56:17.429Z,984.53
2022-11-22T08:57:17.441Z,984.56
2022-11-22T08:58:17.411Z,984.53
2022-11-22T08:59:17.394Z,984.53
2022-11-22T09:00:17.405Z,984.53
2022-11-22T09:01:17.370Z,984.5
2022-11-22T09:02:17.362Z,984.62
2022-11-22T09:03:17.347Z,984.52
2022-11-22T09:04:17.339Z,984.58
2022-11-22T09:05:17.340Z,984.57
2022-11-22T09:08:17.295Z,984.52
2022-11-22T09:09:17.288Z,984.56
2022-11-22T09:10:17.275Z,984.63
2022-11-22T09:11:17.266Z,984.65
2022-11-22T09:12:17.252Z,984.7
2022-11-22T09:13:17.250Z,984.67
2022-11-22T09:14:17.232Z,984.7
2022-11-22T09:15:17.252Z,984.69
2022-11-22T09:16:17.211Z,984.7
2022-11-22T09:17:17.223Z,984.68
2022-11-22T09:18:17.206Z,984.7
2022-11-22T09:19:17.179Z,984.7
2022-11-22T09:20:17.197Z,984.75
2022-11-22T09:21:17.158Z,984.79
2022-11-22T09:22:17.145Z,984.8
2022-11-22T09:23:17.142Z,984.75
2022-11-22T09:24:17.140Z,984.83
2022-11-22T09:25:17.126Z,984.77
2022-11-22T09:26:17.105Z,984.77
2022-11-22T09:27:17.186Z,984.85
2022-11-22T09:28:17.086Z,984.87
2022-11-22T09:29:17.080Z,984.89
2022-11-22T09:30:17.065Z,984.97
2022-11-22T09:31:17.056Z,984.93
2022-11-22T09:32:17.042Z,984.98
2022-11-22T09:33:17.033Z,984.95
2022-11-22T09:34:17.020Z,984.98
2022-11-22T09:35:17.012Z,984.95
2022-11-22T09:36:17.001Z,984.98
2022-11-22T09:37:16.988Z,984.98
2022-11-22T09:38:17.001Z,984.99
2022-11-22T09:39:16.972Z,984.98
2022-11-22T09:40:16.957Z,984.92
2022-11-22T09:41:16.950Z,984.9
2022-11-22T09:42:16.940Z,984.92
2022-11-22T09:43:16.930Z,984.9
2022-11-22T09:44:16.914Z,984.92
2022-11-22T09:45:16.909Z,984.92
2022-11-22T09:46:16.895Z,984.9
2022-11-22T09:47:16.883Z,984.85
2022-11-22T09:48:16.930Z,984.88
2022-11-22T09:49:16.871Z,984.84
2022-11-22T09:50:16.852Z,984.88
2022-11-22T09:51:16.849Z,984.81
2022-11-22T09:52:16.852Z,984.82
2022-11-22T09:53:16.835Z,984.82
2022-11-22T09:54:16.815Z,984.75
2022-11-22T09:55:16.798Z,984.7
2022-11-22T09:56:16.788Z,984.73
2022-11-22T09:57:16.781Z,984.7
2022-11-22T09:58:16.770Z,984.69
2022-11-22T09:59:16.757Z,984.71
2022-11-22T10:00:16.771Z,984.66
2022-11-22T10:01:16.761Z,984.68
2022-11-22T10:02:16.729Z,984.64
2022-11-22T10:03:16.718Z,984.6
2022-11-22T10:04:16.723Z,984.69
2022-11-22T10:05:16.700Z,984.71
2022-11-22T10:06:16.690Z,984.73
2022-11-22T10:07:16.676Z,984.74
2022-11-22T10:08:16.664Z,984.86
2022-11-22T10:09:16.652Z,984.86
2022-11-22T10:10:16.648Z,984.84
2022-11-22T10:11:16.633Z,984.83
2022-11-22T10:12:16.806Z,984.84
2022-11-22T10:13:16.620Z,984.84
2022-11-22T10:14:16.601Z,984.91
2022-11-22T10:15:16.590Z,984.95
2022-11-22T10:16:16.598Z,984.97
2022-11-22T10:17:16.594Z,984.96
2022-11-22T10:18:16.561Z,984.9
2022-11-22T10:19:16.544Z,984.8
2022-11-22T10:20:16.545Z,984.83
2022-11-22T10:21:16.527Z,984.86
2022-11-22T10:22:16.541Z,984.86
2022-11-22T10:23:16.526Z,984.89
2022-11-22T10:24:16.492Z,984.89
2022-11-22T10:25:16.488Z,984.82
2022-11-22T10:26:16.482Z,984.88
2022-11-22T10:27:16.463Z,984.88
2022-11-22T10:28:16.470Z,984.86
2022-11-22T10:29:16.451Z,984.86
2022-11-22T10:30:16.464Z,984.92
2022-11-22T10:31:16.435Z,984.92
2022-11-22T10:32:16.444Z,984.85
2022-11-22T10:33:16.431Z,984.86
2022-11-22T10:34:16.395Z,984.85
2022-11-22T10:35:16.384Z,984.83
2022-11-22T10:36:16.369Z,984.78
2022-11-22T10:37:16.367Z,984.8
2022-11-22T10:38:16.354Z,984.8
2022-11-22T10:39:16.338Z,984.76
2022-11-22T10:40:16.334Z,984.75
2022-11-22T10:41:16.316Z,984.73
2022-11-22T10:42:16.482Z,984.65
2022-11-22T10:43:16.319Z,984.69
2022-11-22T10:44:16.295Z,984.64
2022-11-22T10:45:16.356Z,984.69
2022-11-22T10:46:16.282Z,984.7
2022-11-22T10:47:16.256Z,984.61
2022-11-22T10:48:16.250Z,984.67
2022-11-22T10:49:16.236Z,984.61
2022-11-22T10:50:16.225Z,984.61
2022-11-22T10:51:16.218Z,984.57
2022-11-22T10:52:16.272Z,984.59
2022-11-22T10:53:16.198Z,984.59
2022-11-22T10:54:16.186Z,984.59
2022-11-22T10:55:16.174Z,984.59
2022-11-22T10:56:16.167Z,984.59
2022-11-22T10:57:16.177Z,984.59
2022-11-22T10:58:16.143Z,984.57
2022-11-22T10:59:16.133Z,984.55
2022-11-22T11:00:16.119Z,984.57
2022-11-22T11:01:16.115Z,984.59
2022-11-22T11:02:16.097Z,984.59
2022-11-22T11:03:16.102Z,984.55
2022-11-22T11:04:16.078Z,984.62
2022-11-22T11:05:16.084Z,984.57
2022-11-22T11:06:16.063Z,984.56
2022-11-22T11:07:16.090Z,984.6
2022-11-22T11:08:16.046Z,984.56
2022-11-22T11:10:16.021Z,984.47
2022-11-22T11:11:16.012Z,984.53
2022-11-22T11:12:15.999Z,984.6
2022-11-22T11:13:15.993Z,984.55
2022-11-22T11:14:15.982Z,984.58
2022-11-22T11:15:15.963Z,984.54
2022-11-22T11:16:15.954Z,984.45
2022-11-22T11:17:15.947Z,984.51
2022-11-22T11:18:15.936Z,984.49
2022-11-22T11:19:15.925Z,984.44
2022-11-22T11:20:15.921Z,984.41
2022-11-22T11:21:15.914Z,984.43
2022-11-22T11:22:15.896Z,984.47
2022-11-22T11:23:15.884Z,984.52
2022-11-22T11:24:15.871Z,984.55
2022-11-22T11:25:15.898Z,984.52
2022-11-22T11:26:15.854Z,984.52
2022-11-22T11:27:15.837Z,984.55
2022-11-22T11:28:15.832Z,984.56
2022-11-22T11:29:15.842Z,984.53
2022-11-22T11:30:15.972Z,984.58
2022-11-22T11:31:15.805Z,984.55
2022-11-22T11:32:15.787Z,984.55
2022-11-22T11:33:15.775Z,984.6
2022-11-22T11:34:15.767Z,984.79
2022-11-22T11:35:15.758Z,984.88
2022-11-22T11:36:15.788Z,984.9
2022-11-22T11:37:15.750Z,984.94
2022-11-22T11:38:15.725Z,984.61
2022-11-22T11:39:15.711Z,984.44
2022-11-22T11:40:15.755Z,984.78
2022-11-22T11:41:15.704Z,984.81
2022-11-22T11:42:15.681Z,984.79
2022-11-22T11:43:15.708Z,984.78
2022-11-22T11:44:15.672Z,984.55
2022-11-22T11:45:15.653Z,984.23
2022-11-22T11:46:15.643Z,984.35
2022-11-22T11:47:15.648Z,984.64
2022-11-22T11:48:15.619Z,984.61
2022-11-22T11:49:15.612Z,984.61
2022-11-22T11:50:15.605Z,984.64
2022-11-22T11:51:15.595Z,984.61
2022-11-22T11:52:15.579Z,984.62
2022-11-22T11:53:15.581Z,984.57
2022-11-22T11:54:15.560Z,984.59
2022-11-22T11:55:15.544Z,984.55
2022-11-22T11:56:15.543Z,984.6
2022-11-22T11:57:15.522Z,984.49
2022-11-22T11:58:15.519Z,984.56
2022-11-22T11:59:15.520Z,984.62
2022-11-22T12:00:15.499Z,984.59
2022-11-22T12:01:15.485Z,984.59
2022-11-22T12:02:15.486Z,984.6
2022-11-22T12:03:15.465Z,984.55
2022-11-22T12:04:15.454Z,984.57
2022-11-22T12:05:15.447Z,984.61
2022-11-22T12:06:15.460Z,984.6
2022-11-22T12:07:15.419Z,984.62
2022-11-22T12:08:15.409Z,984.53
2022-11-22T12:09:15.398Z,984.52
2022-11-22T12:10:15.392Z,984.44
2022-11-22T12:11:15.388Z,984.43
2022-11-22T12:12:15.447Z,984.36
2022-11-22T12:13:15.400Z,984.42
2022-11-22T12:14:15.351Z,984.54
2022-11-22T12:15:15.346Z,984.28
2022-11-22T12:16:15.359Z,984.56
2022-11-22T12:17:15.341Z,984.28
2022-11-22T12:18:15.311Z,984.44
2022-11-22T12:19:15.335Z,984.29
2022-11-22T12:20:15.304Z,984.17
2022-11-22T12:21:15.279Z,984.09
2022-11-22T12:22:15.268Z,984.11
2022-11-22T12:23:15.281Z,984.15
2022-11-22T12:24:15.252Z,984.17
2022-11-22T12:25:15.392Z,984.17
2022-11-22T12:26:15.232Z,984.18
2022-11-22T12:27:15.219Z,984.21
2022-11-22T12:28:15.207Z,984.22
2022-11-22T12:29:15.215Z,984.21
2022-11-22T12:30:15.220Z,984.21
2022-11-22T12:31:15.182Z,984.28
2022-11-22T12:32:15.170Z,984.28
2022-11-22T12:33:15.206Z,984.33
2022-11-22T12:34:15.166Z,984.38